Edgewater, Colorado
Current Conditions -  °F | °C
As of 1:50 PM on Thursday 27 Nov 2014 (Local Time) from KBJC Reporting Station
Broken Clouds Broken Clouds  
Wind Chill: 63°   Ceiling: 16000
Heat Index: 63°   Visibility: 70mi
Dew Point: 18°   Wind: 14mph
Humidity: 18%   Direction: 270°W
Pressure: 30.15"   Gusts: 29mph
Location:  39.7434°N, 105.062°W
Report Text: KBJC 272050Z 27012G25KT 70SM SCT080 BKN160 17/M08 A3015
Loading
Personal Weather Stations






























Interactive Weather Map New forecast layout! Learn more

10-Day Weather Forecast

Advertisements
Track Severe Weather on mobile